createdAt,value
2022-12-31T00:00:57.492Z,0
2022-12-31T00:03:57.291Z,0
2022-12-31T00:06:56.921Z,0
2022-12-31T00:09:56.880Z,0
2022-12-31T00:12:57.220Z,0
2022-12-31T00:15:57.751Z,0
2022-12-31T00:18:57.608Z,0
2022-12-31T00:21:57.424Z,0
2022-12-31T00:24:57.734Z,0
2022-12-31T00:27:56.671Z,0
2022-12-31T00:30:57.789Z,0
2022-12-31T00:34:02.061Z,0
2022-12-31T00:36:57.021Z,0
2022-12-31T00:39:57.917Z,0
2022-12-31T00:42:57.306Z,0
2022-12-31T00:45:57.587Z,0
2022-12-31T00:48:56.812Z,0
2022-12-31T00:51:57.059Z,0
2022-12-31T00:54:58.037Z,0
2022-12-31T00:57:57.004Z,0
2022-12-31T01:00:57.323Z,0
2022-12-31T01:03:57.813Z,0
2022-12-31T01:06:56.555Z,0
2022-12-31T01:09:57.711Z,0
2022-12-31T01:12:57.131Z,0
2022-12-31T01:15:57.804Z,0
2022-12-31T01:18:56.856Z,0
2022-12-31T01:21:57.859Z,0
2022-12-31T01:24:56.858Z,0
2022-12-31T01:27:57.909Z,0
2022-12-31T01:30:57.741Z,0
2022-12-31T01:33:57.752Z,0
2022-12-31T01:36:56.822Z,0
2022-12-31T01:39:58.027Z,0
2022-12-31T01:42:57.304Z,0
2022-12-31T01:45:56.922Z,0
2022-12-31T01:48:57.317Z,0
2022-12-31T01:51:57.408Z,0
2022-12-31T01:54:57.590Z,0
2022-12-31T01:57:58.339Z,0
2022-12-31T02:00:57.661Z,0
2022-12-31T02:03:57.423Z,0
2022-12-31T02:06:57.052Z,0
2022-12-31T02:09:57.619Z,0
2022-12-31T02:12:57.830Z,0
2022-12-31T02:15:58.098Z,0
2022-12-31T02:18:57.386Z,0
2022-12-31T02:21:56.977Z,0
2022-12-31T02:24:57.816Z,0
2022-12-31T02:27:56.953Z,0
2022-12-31T02:30:57.644Z,0
2022-12-31T02:33:57.415Z,0
2022-12-31T02:36:56.982Z,0
2022-12-31T02:39:57.108Z,0
2022-12-31T02:42:57.740Z,0
2022-12-31T02:45:57.355Z,0
2022-12-31T02:48:57.832Z,0
2022-12-31T02:51:57.565Z,0
2022-12-31T02:54:57.553Z,0
2022-12-31T02:57:58.054Z,0
2022-12-31T03:00:57.747Z,0
2022-12-31T03:03:57.228Z,0
2022-12-31T03:06:57.393Z,0
2022-12-31T03:09:57.794Z,0
2022-12-31T03:12:57.468Z,0
2022-12-31T03:15:57.150Z,0
2022-12-31T03:18:57.906Z,0
2022-12-31T03:21:57.676Z,0
2022-12-31T03:24:57.121Z,0
2022-12-31T03:27:58.189Z,0
2022-12-31T03:30:57.115Z,0
2022-12-31T03:33:56.573Z,0
2022-12-31T03:36:57.321Z,0
2022-12-31T03:39:57.615Z,0
2022-12-31T03:42:56.875Z,0
2022-12-31T03:45:57.284Z,0
2022-12-31T03:48:57.119Z,0
2022-12-31T03:51:57.619Z,0
2022-12-31T03:54:57.018Z,0
2022-12-31T03:57:57.880Z,0
2022-12-31T04:00:57.543Z,0
2022-12-31T04:03:57.019Z,0
2022-12-31T04:06:57.814Z,0
2022-12-31T04:09:57.318Z,0
2022-12-31T04:12:57.617Z,0
2022-12-31T04:15:57.811Z,0
2022-12-31T04:18:57.461Z,0
2022-12-31T04:21:56.856Z,0
2022-12-31T04:24:56.830Z,0
2022-12-31T04:27:57.415Z,0
2022-12-31T04:30:57.409Z,0
2022-12-31T04:33:58.237Z,0
2022-12-31T04:36:56.693Z,0
2022-12-31T04:40:01.837Z,0
2022-12-31T04:42:57.613Z,0
2022-12-31T04:45:57.186Z,0
2022-12-31T04:48:57.618Z,0
2022-12-31T04:51:57.125Z,0
2022-12-31T04:54:57.892Z,0
2022-12-31T04:57:57.912Z,0
2022-12-31T05:00:57.931Z,0
2022-12-31T05:03:57.407Z,0.3333333333333333
2022-12-31T05:06:57.752Z,0
2022-12-31T05:09:57.671Z,0
2022-12-31T05:12:57.950Z,0
2022-12-31T05:15:59.670Z,0
2022-12-31T05:18:57.631Z,0
2022-12-31T05:21:57.042Z,0
2022-12-31T05:24:57.081Z,0
2022-12-31T05:27:56.483Z,0
2022-12-31T05:30:57.443Z,0
2022-12-31T05:33:58.720Z,0
2022-12-31T05:36:57.489Z,0
2022-12-31T05:39:57.951Z,0
2022-12-31T05:42:57.570Z,0
2022-12-31T05:45:57.370Z,0
2022-12-31T05:48:56.992Z,0
2022-12-31T05:51:57.834Z,0
2022-12-31T05:54:57.415Z,0
2022-12-31T05:57:57.097Z,0
2022-12-31T06:00:57.941Z,0
2022-12-31T06:03:57.880Z,0
2022-12-31T06:06:57.765Z,0
2022-12-31T06:09:56.966Z,0
2022-12-31T06:12:57.047Z,0
2022-12-31T06:15:57.998Z,0
2022-12-31T06:18:57.348Z,0
2022-12-31T06:21:57.776Z,0
2022-12-31T06:24:57.791Z,0
2022-12-31T06:27:57.071Z,0
2022-12-31T06:30:57.652Z,0
2022-12-31T06:33:57.318Z,0
2022-12-31T06:36:57.729Z,0
2022-12-31T06:39:57.347Z,0
2022-12-31T06:43:00.181Z,0
2022-12-31T06:45:57.216Z,0
2022-12-31T06:48:57.701Z,0
2022-12-31T06:51:57.288Z,0
2022-12-31T06:54:57.192Z,0
2022-12-31T06:57:57.397Z,1
2022-12-31T07:00:57.435Z,2
2022-12-31T07:03:57.496Z,4
2022-12-31T07:06:56.897Z,5.333333333333333
2022-12-31T07:10:02.783Z,5
2022-12-31T07:12:57.047Z,8.666666666666666
2022-12-31T07:15:57.744Z,10.666666666666666
2022-12-31T07:18:57.098Z,15
2022-12-31T07:21:57.953Z,20
2022-12-31T07:24:57.830Z,31
2022-12-31T07:27:57.045Z,42
2022-12-31T07:30:56.900Z,57.333333333333336
2022-12-31T07:33:57.839Z,70
2022-12-31T07:36:57.219Z,80.66666666666667
2022-12-31T07:39:58.216Z,89
2022-12-31T07:42:57.083Z,99
2022-12-31T07:45:56.823Z,107
2022-12-31T07:48:56.786Z,101.33333333333333
2022-12-31T07:51:57.451Z,118
2022-12-31T07:54:56.904Z,143.66666666666666
2022-12-31T07:57:58.131Z,172
2022-12-31T08:00:57.965Z,174
2022-12-31T08:03:56.805Z,186
2022-12-31T08:06:57.448Z,188
2022-12-31T08:09:58.443Z,183
2022-12-31T08:12:58.342Z,155
2022-12-31T08:15:57.533Z,174
2022-12-31T08:18:57.467Z,122
2022-12-31T08:21:57.155Z,143
2022-12-31T08:24:57.294Z,125
2022-12-31T08:28:02.873Z,147
2022-12-31T08:30:57.101Z,185.33333333333334
2022-12-31T08:34:02.039Z,217
2022-12-31T08:36:57.264Z,226
2022-12-31T08:39:57.916Z,263
2022-12-31T08:42:57.175Z,274
2022-12-31T08:45:57.778Z,310
2022-12-31T08:48:56.999Z,359.3333333333333
2022-12-31T08:51:58.109Z,364
2022-12-31T08:54:57.227Z,391
2022-12-31T08:57:56.829Z,395
2022-12-31T09:00:58.271Z,435
2022-12-31T09:03:57.666Z,443.3333333333333
2022-12-31T09:06:57.560Z,437
2022-12-31T09:09:57.215Z,439
2022-12-31T09:12:57.534Z,421.3333333333333
2022-12-31T09:15:57.901Z,399
2022-12-31T09:18:57.393Z,399.6666666666667
2022-12-31T09:21:58.220Z,393
2022-12-31T09:24:57.884Z,390
2022-12-31T09:27:57.245Z,389
2022-12-31T09:30:57.213Z,390
2022-12-31T09:33:57.079Z,404.6666666666667
2022-12-31T09:36:57.614Z,423.6666666666667
2022-12-31T09:39:57.991Z,410
2022-12-31T09:42:57.125Z,409.6666666666667
2022-12-31T09:45:57.623Z,440
2022-12-31T09:48:57.034Z,446
2022-12-31T09:51:58.014Z,457
2022-12-31T09:54:57.290Z,471.6666666666667
2022-12-31T09:57:56.970Z,539
2022-12-31T10:00:57.586Z,552.6666666666666
2022-12-31T10:03:57.946Z,545
2022-12-31T10:06:57.617Z,543
2022-12-31T10:09:57.073Z,537
2022-12-31T10:12:57.598Z,523
2022-12-31T10:15:57.196Z,489
2022-12-31T10:18:58.205Z,477.3333333333333
2022-12-31T10:21:57.607Z,474
2022-12-31T10:24:57.556Z,486.3333333333333
2022-12-31T10:27:57.185Z,536.6666666666666
2022-12-31T10:30:57.167Z,595
2022-12-31T10:33:57.647Z,609
2022-12-31T10:36:56.850Z,592.6666666666666
2022-12-31T10:39:57.335Z,617.3333333333334
2022-12-31T10:42:57.941Z,640.6666666666666
2022-12-31T10:45:57.024Z,598
2022-12-31T10:48:57.418Z,597.6666666666666
2022-12-31T10:51:57.843Z,604
2022-12-31T10:54:57.771Z,628.3333333333334
2022-12-31T10:58:03.617Z,632
2022-12-31T11:00:57.923Z,624.6666666666666
2022-12-31T11:04:15.785Z,628
2022-12-31T11:06:58.008Z,616
2022-12-31T11:09:56.952Z,589
2022-12-31T11:12:57.694Z,609
2022-12-31T11:15:57.613Z,605.6666666666666
2022-12-31T11:18:57.320Z,621.3333333333334
2022-12-31T11:21:57.690Z,606.3333333333334
2022-12-31T11:24:57.688Z,570
2022-12-31T11:27:56.686Z,550
2022-12-31T11:30:57.706Z,507
2022-12-31T11:33:57.702Z,482.6666666666667
2022-12-31T11:36:57.049Z,470
2022-12-31T11:39:57.498Z,451
2022-12-31T11:42:57.393Z,450
2022-12-31T11:45:57.372Z,445
2022-12-31T11:48:57.263Z,454.3333333333333
2022-12-31T11:51:58.171Z,444.6666666666667
2022-12-31T11:54:58.100Z,426
2022-12-31T11:57:57.713Z,434.3333333333333
2022-12-31T12:00:57.556Z,444
2022-12-31T12:03:57.659Z,496.6666666666667
2022-12-31T12:06:57.470Z,496.3333333333333
2022-12-31T12:09:57.860Z,498
2022-12-31T12:12:57.067Z,490.6666666666667
2022-12-31T12:15:57.526Z,484
2022-12-31T12:18:57.236Z,489
2022-12-31T12:21:57.832Z,507.6666666666667
2022-12-31T12:24:57.718Z,521.3333333333334
2022-12-31T12:27:57.383Z,513
2022-12-31T12:30:58.099Z,498.3333333333333
2022-12-31T12:33:57.551Z,507.6666666666667
2022-12-31T12:36:58.043Z,509.3333333333333
2022-12-31T12:39:57.460Z,493.6666666666667
2022-12-31T12:42:58.136Z,482.6666666666667
2022-12-31T12:45:57.431Z,460
2022-12-31T12:48:57.540Z,445.3333333333333
2022-12-31T12:51:57.410Z,437
2022-12-31T12:54:57.512Z,435.6666666666667
2022-12-31T12:57:57.510Z,429.6666666666667
2022-12-31T13:00:58.016Z,407
2022-12-31T13:04:33.030Z,416
2022-12-31T13:06:57.902Z,402.6666666666667
2022-12-31T13:09:57.732Z,386.6666666666667
2022-12-31T13:15:57.373Z,373
2022-12-31T13:18:57.680Z,375
2022-12-31T13:21:57.992Z,378
2022-12-31T13:24:57.287Z,377
2022-12-31T13:27:57.529Z,378
2022-12-31T13:31:01.779Z,372.3333333333333
2022-12-31T13:33:57.248Z,353
2022-12-31T13:36:57.894Z,340.3333333333333
2022-12-31T13:39:56.946Z,331.3333333333333
2022-12-31T13:42:57.251Z,315
2022-12-31T13:45:57.317Z,296
2022-12-31T13:48:56.989Z,282
2022-12-31T13:51:57.322Z,272
2022-12-31T13:54:57.979Z,268
2022-12-31T13:57:57.663Z,261.3333333333333
2022-12-31T14:00:58.069Z,251.33333333333334
2022-12-31T14:03:57.596Z,244.33333333333334
2022-12-31T14:06:57.435Z,235.33333333333334
2022-12-31T14:09:58.112Z,226.66666666666666
2022-12-31T14:12:57.983Z,214.33333333333334
2022-12-31T14:15:57.163Z,203
2022-12-31T14:18:57.719Z,193
2022-12-31T14:21:57.208Z,188
2022-12-31T14:24:57.425Z,181.33333333333334
2022-12-31T14:27:57.859Z,173
2022-12-31T14:30:57.985Z,164.33333333333334
2022-12-31T14:33:57.621Z,154.33333333333334
2022-12-31T14:36:57.778Z,143.33333333333334
2022-12-31T14:39:57.996Z,132.66666666666666
2022-12-31T14:42:57.701Z,122
2022-12-31T14:45:57.360Z,111
2022-12-31T14:48:57.667Z,99
2022-12-31T14:51:57.154Z,86.66666666666667
2022-12-31T14:54:56.902Z,77
2022-12-31T14:58:27.855Z,67.66666666666667
2022-12-31T15:00:57.699Z,60
2022-12-31T15:03:57.989Z,52
2022-12-31T15:06:56.769Z,44
2022-12-31T15:09:56.831Z,37
2022-12-31T15:12:57.191Z,30
2022-12-31T15:15:57.682Z,24.333333333333332
2022-12-31T15:18:57.146Z,19
2022-12-31T15:21:57.430Z,14.333333333333334
2022-12-31T15:24:57.232Z,11
2022-12-31T15:27:57.936Z,8
2022-12-31T15:30:57.424Z,6.333333333333333
2022-12-31T15:33:56.630Z,5
2022-12-31T15:36:57.969Z,3.6666666666666665
2022-12-31T15:39:57.333Z,3
2022-12-31T15:42:58.017Z,2.3333333333333335
2022-12-31T15:45:57.477Z,1
2022-12-31T15:49:03.674Z,0
2022-12-31T15:51:57.892Z,0
2022-12-31T15:54:57.106Z,0
2022-12-31T15:57:57.823Z,0
2022-12-31T16:00:57.768Z,0
2022-12-31T16:03:57.842Z,0
2022-12-31T16:06:57.307Z,0
2022-12-31T16:09:56.828Z,0.3333333333333333
2022-12-31T16:12:57.361Z,0
2022-12-31T16:15:57.647Z,0
2022-12-31T16:18:57.041Z,0
2022-12-31T16:21:57.676Z,0
2022-12-31T16:27:57.874Z,0
2022-12-31T16:30:57.447Z,0
2022-12-31T16:33:57.369Z,0
2022-12-31T16:36:57.067Z,0
2022-12-31T16:39:57.697Z,0
2022-12-31T16:42:57.305Z,0
2022-12-31T16:45:57.669Z,0
2022-12-31T16:48:57.756Z,0.3333333333333333
2022-12-31T16:51:58.078Z,0
2022-12-31T16:54:57.986Z,0
2022-12-31T16:57:57.457Z,0
2022-12-31T17:00:57.174Z,0
2022-12-31T17:03:57.012Z,0
2022-12-31T17:06:57.305Z,0
2022-12-31T17:09:57.671Z,0
2022-12-31T17:15:57.855Z,0
2022-12-31T17:18:57.890Z,0
2022-12-31T17:21:57.029Z,0
2022-12-31T17:24:57.511Z,0
2022-12-31T17:27:58.059Z,0
2022-12-31T17:30:57.838Z,0
2022-12-31T17:33:57.007Z,0
2022-12-31T17:36:57.507Z,0
2022-12-31T17:40:06.461Z,0
2022-12-31T17:42:56.962Z,0
2022-12-31T17:45:57.662Z,0
2022-12-31T17:48:57.791Z,0
2022-12-31T17:51:57.525Z,0
2022-12-31T17:54:56.901Z,0
2022-12-31T17:57:57.275Z,0
2022-12-31T18:00:57.319Z,0
2022-12-31T18:03:58.047Z,0
2022-12-31T18:06:57.739Z,0
2022-12-31T18:09:58.051Z,0.3333333333333333
2022-12-31T18:12:57.173Z,0
2022-12-31T18:15:57.837Z,0
2022-12-31T18:18:57.524Z,0
2022-12-31T18:21:57.934Z,0
2022-12-31T18:24:57.712Z,0
2022-12-31T18:27:57.118Z,0
2022-12-31T18:30:57.955Z,0
2022-12-31T18:33:57.056Z,0
2022-12-31T18:36:57.550Z,0
2022-12-31T18:39:57.411Z,0
2022-12-31T18:43:04.480Z,0
2022-12-31T18:45:57.753Z,0
2022-12-31T18:48:57.334Z,0.3333333333333333
2022-12-31T18:51:57.656Z,0
2022-12-31T18:54:57.800Z,0
2022-12-31T18:57:57.126Z,0
2022-12-31T19:01:25.719Z,0
2022-12-31T19:03:57.283Z,0
2022-12-31T19:06:57.580Z,0
2022-12-31T19:09:58.668Z,0
2022-12-31T19:12:57.094Z,0
2022-12-31T19:15:57.320Z,0
2022-12-31T19:18:57.862Z,0
2022-12-31T19:21:57.175Z,0
2022-12-31T19:24:57.753Z,0
2022-12-31T19:27:57.728Z,0
2022-12-31T19:30:57.672Z,0
2022-12-31T19:33:56.880Z,0
2022-12-31T19:36:57.485Z,0
2022-12-31T19:39:57.568Z,0
2022-12-31T19:42:57.561Z,0
2022-12-31T19:45:57.775Z,0
2022-12-31T19:48:57.268Z,0
2022-12-31T19:51:57.713Z,0
2022-12-31T19:54:57.446Z,0
2022-12-31T19:57:57.944Z,0
2022-12-31T20:01:02.283Z,0
2022-12-31T20:03:57.390Z,0
2022-12-31T20:06:56.746Z,0
2022-12-31T20:09:57.358Z,0
2022-12-31T20:12:57.778Z,0
2022-12-31T20:15:57.882Z,0
2022-12-31T20:18:57.415Z,0
2022-12-31T20:21:58.131Z,0
2022-12-31T20:24:57.439Z,0
2022-12-31T20:27:57.895Z,0
2022-12-31T20:30:57.991Z,0
2022-12-31T20:33:57.327Z,0
2022-12-31T20:36:57.039Z,0
2022-12-31T20:39:57.251Z,0
2022-12-31T20:42:57.439Z,0
2022-12-31T20:45:57.390Z,0
2022-12-31T20:48:58.040Z,0
2022-12-31T20:51:57.810Z,0
2022-12-31T20:54:57.103Z,0.6666666666666666
2022-12-31T20:57:57.514Z,0
2022-12-31T21:00:58.039Z,0
2022-12-31T21:04:06.281Z,0
2022-12-31T21:06:57.359Z,0
2022-12-31T21:09:58.049Z,0
2022-12-31T21:12:57.758Z,0
2022-12-31T21:15:57.843Z,0
2022-12-31T21:18:57.383Z,0
2022-12-31T21:21:57.967Z,0
2022-12-31T21:24:57.331Z,0
2022-12-31T21:27:57.217Z,0
2022-12-31T21:30:57.992Z,0
2022-12-31T21:33:57.695Z,0
2022-12-31T21:36:56.786Z,0
2022-12-31T21:39:57.108Z,0
2022-12-31T21:42:57.655Z,0
2022-12-31T21:45:57.831Z,0
2022-12-31T21:48:57.044Z,0
2022-12-31T21:51:57.743Z,0
2022-12-31T21:54:56.836Z,0
2022-12-31T21:58:25.257Z,0
2022-12-31T22:00:58.399Z,0
2022-12-31T22:03:56.889Z,0
2022-12-31T22:06:57.677Z,0
2022-12-31T22:09:57.023Z,0
2022-12-31T22:12:57.588Z,0
2022-12-31T22:16:03.810Z,0
2022-12-31T22:18:57.571Z,0
2022-12-31T22:21:57.278Z,0
2022-12-31T22:24:57.843Z,0
2022-12-31T22:28:36.116Z,0
2022-12-31T22:30:58.104Z,0
2022-12-31T22:33:58.137Z,0
2022-12-31T22:36:57.315Z,0
2022-12-31T22:39:57.986Z,0
2022-12-31T22:42:57.586Z,0
2022-12-31T22:45:57.394Z,0
2022-12-31T22:48:58.716Z,0
2022-12-31T22:51:59.906Z,0
2022-12-31T22:54:58.071Z,0
2022-12-31T22:57:57.465Z,0
2022-12-31T23:00:58.125Z,0
2022-12-31T23:03:57.633Z,0.3333333333333333
2022-12-31T23:06:57.739Z,0
2022-12-31T23:09:57.275Z,0
2022-12-31T23:12:56.936Z,0
2022-12-31T23:15:57.524Z,0
2022-12-31T23:19:03.448Z,0
2022-12-31T23:21:57.168Z,0
2022-12-31T23:24:57.383Z,0
2022-12-31T23:27:57.627Z,0
2022-12-31T23:30:58.099Z,0
2022-12-31T23:33:57.380Z,0
2022-12-31T23:36:57.726Z,0
2022-12-31T23:39:57.949Z,0
2022-12-31T23:43:02.720Z,0
2022-12-31T23:45:57.992Z,0
2022-12-31T23:48:57.193Z,0
2022-12-31T23:51:57.016Z,0
2022-12-31T23:54:57.327Z,0
2022-12-31T23:57:57.198Z,0
